createdAt,value
2022-12-11T00:01:11.161Z,75.28
2022-12-11T00:03:39.197Z,75.49
2022-12-11T00:06:08.263Z,79.30
2022-12-11T00:08:37.848Z,80.18
2022-12-11T00:11:06.271Z,81.43
2022-12-11T00:13:34.076Z,82.02
2022-12-11T00:16:01.823Z,83.79
2022-12-11T00:18:29.554Z,84.52
2022-12-11T00:21:01.529Z,86.32
2022-12-11T00:23:29.321Z,85.08
2022-12-11T00:25:58.697Z,85.53
2022-12-11T00:28:26.559Z,84.13
2022-12-11T00:30:54.346Z,85.04
2022-12-11T00:33:22.083Z,84.95
2022-12-11T00:35:49.819Z,82.43
2022-12-11T00:38:19.697Z,83.43
2022-12-11T00:40:47.632Z,83.70
2022-12-11T00:43:17.291Z,84.83
2022-12-11T00:45:46.897Z,82.21
2022-12-11T00:48:14.909Z,80.13
2022-12-11T00:50:42.862Z,80.68
2022-12-11T00:53:10.650Z,80.57
2022-12-11T00:55:39.776Z,84.80
2022-12-11T00:58:07.618Z,83.77
2022-12-11T01:00:36.955Z,83.90
2022-12-11T01:03:05.197Z,84.62
2022-12-11T01:05:33.141Z,85.05
2022-12-11T01:08:01.593Z,84.45
2022-12-11T01:10:28.662Z,83.96
2022-12-11T01:12:58.717Z,84.92
2022-12-11T01:15:28.927Z,85.06
2022-12-11T01:17:58.551Z,83.89
2022-12-11T01:20:28.488Z,85.34
2022-12-11T01:22:58.475Z,84.88
2022-12-11T01:25:26.957Z,85.49
2022-12-11T01:27:55.955Z,84.51
2022-12-11T01:30:25.958Z,85.42
2022-12-11T01:32:53.893Z,82.86
2022-12-11T01:35:23.288Z,82.89
2022-12-11T01:37:51.048Z,82.72
2022-12-11T01:40:21.250Z,82.35
2022-12-11T01:42:49.136Z,81.14
2022-12-11T01:45:39.977Z,80.81
2022-12-11T01:48:11.664Z,81.63
2022-12-11T01:50:45.599Z,83.98
2022-12-11T01:53:17.719Z,81.65
2022-12-11T01:55:47.571Z,80.42
2022-12-11T01:58:17.438Z,81.76
2022-12-11T02:00:50.035Z,83.21
2022-12-11T02:03:18.025Z,82.39
2022-12-11T02:05:47.211Z,85.41
2022-12-11T02:11:13.505Z,83.37
2022-12-11T02:13:51.607Z,81.69
2022-12-11T02:16:27.409Z,81.44
2022-12-11T02:19:02.474Z,83.80
2022-12-11T02:21:40.212Z,82.90
2022-12-11T02:24:24.256Z,83.07
2022-12-11T02:27:05.143Z,85.04
2022-12-11T02:29:39.364Z,85.79
2022-12-11T02:32:14.871Z,85.04
2022-12-11T02:34:45.764Z,83.30
2022-12-11T02:37:19.470Z,83.85
2022-12-11T02:39:49.478Z,82.37
2022-12-11T02:42:19.629Z,80.72
2022-12-11T02:44:51.759Z,79.56
2022-12-11T02:47:22.059Z,81.16
2022-12-11T02:49:51.584Z,79.86
2022-12-11T02:52:22.856Z,79.64
2022-12-11T02:54:55.343Z,83.19
2022-12-11T02:57:28.431Z,84.63
2022-12-11T02:59:57.708Z,85.24
2022-12-11T03:02:25.706Z,83.45
2022-12-11T03:04:53.840Z,81.87
2022-12-11T03:07:25.533Z,83.03
2022-12-11T03:09:53.558Z,82.95
2022-12-11T03:12:26.245Z,82.14
2022-12-11T03:14:54.355Z,83.58
2022-12-11T03:17:26.512Z,84.30
2022-12-11T03:20:01.014Z,83.20
2022-12-11T03:22:35.160Z,81.00
2022-12-11T03:25:06.391Z,80.85
2022-12-11T03:27:39.220Z,80.14
2022-12-11T03:30:10.101Z,81.61
2022-12-11T03:32:43.453Z,80.92
2022-12-11T03:35:19.439Z,82.13
2022-12-11T03:37:49.187Z,83.06
2022-12-11T03:40:20.443Z,85.19
2022-12-11T03:42:52.597Z,85.51
2022-12-11T03:45:23.321Z,84.44
2022-12-11T03:47:54.786Z,82.47
2022-12-11T03:50:25.234Z,81.66
2022-12-11T03:52:54.861Z,80.67
2022-12-11T03:55:23.984Z,79.63
2022-12-11T03:57:51.887Z,80.60
2022-12-11T04:00:21.635Z,82.30
2022-12-11T04:03:13.222Z,80.79
2022-12-11T04:05:43.820Z,80.80
2022-12-11T04:08:12.039Z,80.69
2022-12-11T04:10:40.191Z,80.67
2022-12-11T04:13:08.554Z,80.40
2022-12-11T04:15:36.370Z,80.17
2022-12-11T04:18:21.985Z,79.45
2022-12-11T04:21:11.284Z,78.85
2022-12-11T04:23:56.644Z,79.02
2022-12-11T04:26:24.547Z,79.94
2022-12-11T04:28:52.375Z,78.14
2022-12-11T04:31:23.074Z,78.42
2022-12-11T04:33:50.925Z,77.93
2022-12-11T04:36:20.186Z,79.33
2022-12-11T04:38:48.013Z,78.72
2022-12-11T04:41:16.983Z,79.08
2022-12-11T04:43:45.518Z,79.48
2022-12-11T04:46:15.406Z,82.24
2022-12-11T04:48:43.298Z,81.64
2022-12-11T04:51:11.757Z,81.23
2022-12-11T04:53:41.292Z,80.74
2022-12-11T04:56:13.749Z,79.18
2022-12-11T04:58:42.902Z,77.96
2022-12-11T05:01:12.171Z,78.08
2022-12-11T05:03:40.594Z,79.24
2022-12-11T05:06:09.303Z,80.99
2022-12-11T05:08:40.235Z,81.03
2022-12-11T05:11:11.669Z,80.88
2022-12-11T05:13:40.496Z,80.21
2022-12-11T05:16:11.350Z,78.45
2022-12-11T05:18:39.138Z,79.77
2022-12-11T05:21:09.186Z,79.00
2022-12-11T05:23:37.611Z,79.22
2022-12-11T05:26:08.388Z,76.33
2022-12-11T05:28:39.343Z,76.88
2022-12-11T05:31:09.889Z,75.43
2022-12-11T05:33:37.811Z,75.71
2022-12-11T05:36:06.426Z,75.86
2022-12-11T05:38:34.396Z,77.21
2022-12-11T05:41:03.617Z,76.55
2022-12-11T05:43:34.479Z,76.30
2022-12-11T05:46:08.639Z,75.55
2022-12-11T05:48:37.269Z,75.60
2022-12-11T05:51:06.721Z,74.71
2022-12-11T05:53:34.810Z,74.19
2022-12-11T05:56:05.927Z,74.05
2022-12-11T05:58:34.215Z,73.68
2022-12-11T06:01:02.681Z,73.12
2022-12-11T06:03:31.811Z,73.61
2022-12-11T06:06:02.898Z,72.69
2022-12-11T06:08:30.775Z,72.05
2022-12-11T06:10:58.819Z,71.07
2022-12-11T06:13:26.606Z,71.20
2022-12-11T06:15:54.608Z,71.53
2022-12-11T06:18:22.522Z,72.57
2022-12-11T06:20:51.658Z,72.19
2022-12-11T06:23:19.459Z,72.11
2022-12-11T06:25:47.432Z,72.88
2022-12-11T06:28:15.145Z,71.47
2022-12-11T06:30:42.947Z,72.10
2022-12-11T06:33:10.709Z,73.48
2022-12-11T06:35:41.912Z,72.78
2022-12-11T06:38:11.511Z,74.42
2022-12-11T06:40:39.418Z,73.35
2022-12-11T06:43:07.377Z,71.22
2022-12-11T06:45:35.386Z,71.50
2022-12-11T06:48:03.269Z,72.14
2022-12-11T06:50:31.096Z,72.08
2022-12-11T06:52:58.939Z,71.47
2022-12-11T06:55:28.021Z,71.40
2022-12-11T06:57:55.751Z,71.39
2022-12-11T07:00:23.538Z,73.41
2022-12-11T07:02:51.770Z,72.07
2022-12-11T07:05:19.518Z,71.89
2022-12-11T07:07:48.056Z,74.80
2022-12-11T07:10:15.831Z,75.59
2022-12-11T07:12:44.955Z,76.89
2022-12-11T07:15:13.134Z,77.00
2022-12-11T07:17:41.245Z,76.97
2022-12-11T07:20:10.290Z,77.87
2022-12-11T07:22:43.072Z,76.00
2022-12-11T07:25:14.038Z,74.36
2022-12-11T07:27:43.592Z,73.65
2022-12-11T07:30:14.448Z,73.92
2022-12-11T07:32:42.509Z,74.41
2022-12-11T07:35:10.941Z,74.19
2022-12-11T07:37:41.618Z,74.09
2022-12-11T07:40:10.739Z,74.00
2022-12-11T07:42:42.791Z,73.20
2022-12-11T07:45:16.792Z,76.26
2022-12-11T07:47:44.894Z,76.26
2022-12-11T07:50:13.149Z,75.56
2022-12-11T07:52:41.306Z,76.84
2022-12-11T07:55:09.986Z,78.65
2022-12-11T07:57:38.143Z,79.69
2022-12-11T08:00:10.654Z,82.05
2022-12-11T08:02:40.165Z,82.06
2022-12-11T08:05:09.624Z,78.84
2022-12-11T08:07:37.638Z,70.93
2022-12-11T08:10:06.129Z,65.45
2022-12-11T08:12:34.102Z,64.29
2022-12-11T08:15:01.896Z,62.80
2022-12-11T08:17:33.922Z,60.37
2022-12-11T08:20:10.426Z,60.23
2022-12-11T08:22:38.082Z,57.68
2022-12-11T08:25:06.717Z,54.98
2022-12-11T08:27:34.703Z,55.32
2022-12-11T08:30:02.454Z,56.75
2022-12-11T08:32:30.241Z,55.71
2022-12-11T08:34:58.107Z,58.01
2022-12-11T08:37:27.366Z,59.69
2022-12-11T08:39:55.192Z,60.52
2022-12-11T08:42:23.071Z,62.55
2022-12-11T08:44:51.779Z,64.85
2022-12-11T08:47:19.511Z,68.03
2022-12-11T08:49:47.250Z,70.05
2022-12-11T08:52:14.941Z,71.45
2022-12-11T08:54:44.102Z,73.23
2022-12-11T08:57:11.781Z,73.34
2022-12-11T08:59:39.493Z,73.17
2022-12-11T09:02:07.590Z,73.87
2022-12-11T09:04:35.329Z,73.44
2022-12-11T09:07:03.070Z,73.59
2022-12-11T09:09:31.020Z,72.45
2022-12-11T09:12:01.541Z,74.68
2022-12-11T09:14:29.294Z,73.35
2022-12-11T09:16:57.093Z,74.45
2022-12-11T09:19:27.887Z,73.77
2022-12-11T09:21:59.749Z,74.51
2022-12-11T09:24:27.468Z,74.27
2022-12-11T09:26:55.167Z,72.58
2022-12-11T09:29:24.288Z,74.24
2022-12-11T09:31:52.007Z,73.41
2022-12-11T09:34:23.648Z,72.88
2022-12-11T09:36:55.149Z,74.27
2022-12-11T09:39:22.932Z,73.72
2022-12-11T09:41:56.646Z,73.19
2022-12-11T09:44:35.411Z,72.14
2022-12-11T09:47:03.131Z,73.58
2022-12-11T09:49:38.641Z,73.34
2022-12-11T09:52:12.852Z,71.44
2022-12-11T09:54:47.170Z,70.30
2022-12-11T09:57:36.151Z,70.75
2022-12-11T10:00:13.724Z,70.54
2022-12-11T10:02:56.322Z,69.65
2022-12-11T10:05:36.615Z,70.64
2022-12-11T10:08:12.998Z,69.21
2022-12-11T10:10:45.169Z,70.64
2022-12-11T10:13:29.262Z,70.74
2022-12-11T10:16:05.046Z,69.74
2022-12-11T10:18:34.858Z,71.51
2022-12-11T10:21:04.513Z,69.26
2022-12-11T10:23:39.816Z,69.83
2022-12-11T10:26:12.180Z,68.86
2022-12-11T10:28:40.018Z,69.52
2022-12-11T10:31:18.190Z,70.45
2022-12-11T10:33:56.462Z,70.31
2022-12-11T10:36:29.606Z,69.18
2022-12-11T10:38:57.742Z,68.78
2022-12-11T10:41:36.441Z,69.31
2022-12-11T10:44:16.241Z,67.72
2022-12-11T10:46:45.746Z,67.14
2022-12-11T10:49:24.660Z,67.75
2022-12-11T10:51:53.593Z,68.45
2022-12-11T10:54:32.194Z,67.54
2022-12-11T10:57:02.081Z,67.42
2022-12-11T10:59:37.170Z,66.01
2022-12-11T11:02:15.732Z,68.35
2022-12-11T11:04:45.159Z,67.59
2022-12-11T11:07:15.421Z,68.16
2022-12-11T11:09:43.510Z,67.32
2022-12-11T11:12:23.481Z,65.89
2022-12-11T11:15:01.461Z,66.89
2022-12-11T11:17:35.120Z,66.62
2022-12-11T11:20:13.309Z,67.40
2022-12-11T11:22:45.898Z,67.13
2022-12-11T11:25:19.494Z,66.99
2022-12-11T11:27:51.298Z,69.64
2022-12-11T11:30:23.139Z,68.58
2022-12-11T11:32:56.466Z,67.47
2022-12-11T11:35:26.588Z,67.02
2022-12-11T11:38:18.258Z,66.30
2022-12-11T11:40:51.064Z,65.73
2022-12-11T11:43:29.063Z,67.67
2022-12-11T11:46:01.812Z,70.36
2022-12-11T11:48:41.388Z,70.41
2022-12-11T11:51:16.299Z,70.60
2022-12-11T11:53:49.102Z,69.15
2022-12-11T11:56:22.656Z,67.61
2022-12-11T11:59:02.450Z,65.62
2022-12-11T12:01:30.807Z,67.08
2022-12-11T12:04:00.955Z,69.42
2022-12-11T12:06:48.961Z,68.18
2022-12-11T12:09:32.146Z,66.78
2022-12-11T12:12:20.938Z,66.42
2022-12-11T12:15:05.725Z,67.92
2022-12-11T12:17:44.666Z,66.84
2022-12-11T12:20:20.483Z,68.35
2022-12-11T12:23:03.965Z,67.30
2022-12-11T12:25:39.892Z,66.90
2022-12-11T12:28:23.425Z,66.49
2022-12-11T12:31:01.402Z,65.58
2022-12-11T12:33:45.533Z,65.57
2022-12-11T12:36:22.560Z,65.95
2022-12-11T12:38:56.200Z,65.59
2022-12-11T12:41:33.417Z,65.86
2022-12-11T12:44:15.780Z,65.53
2022-12-11T12:47:00.450Z,67.46
2022-12-11T12:49:41.079Z,67.50
2022-12-11T12:52:16.110Z,65.90
2022-12-11T12:55:07.578Z,67.57
2022-12-11T12:57:37.129Z,67.13
2022-12-11T13:00:12.573Z,65.82
2022-12-11T13:02:50.242Z,67.92
2022-12-11T13:05:22.556Z,66.79
2022-12-11T13:07:54.830Z,65.50
2022-12-11T13:10:29.593Z,66.49
2022-12-11T13:12:57.900Z,66.11
2022-12-11T13:15:35.139Z,66.87
2022-12-11T13:18:05.970Z,65.53
2022-12-11T13:20:35.559Z,65.77
2022-12-11T13:23:18.741Z,66.58
2022-12-11T13:25:53.129Z,66.69
2022-12-11T13:28:33.211Z,66.46
2022-12-11T13:31:04.082Z,65.85
2022-12-11T13:33:33.356Z,66.52
2022-12-11T13:36:32.267Z,66.96
2022-12-11T13:39:06.285Z,67.96
2022-12-11T13:41:36.373Z,69.69
2022-12-11T13:44:07.050Z,68.85
2022-12-11T13:46:38.296Z,68.04
2022-12-11T13:49:08.349Z,67.77
2022-12-11T13:51:37.628Z,67.48
2022-12-11T13:54:17.303Z,67.64
2022-12-11T13:56:55.781Z,67.14
2022-12-11T13:59:28.802Z,67.03
2022-12-11T14:01:59.995Z,66.55
2022-12-11T14:04:29.085Z,66.56
2022-12-11T14:06:57.595Z,66.22
2022-12-11T14:09:29.338Z,67.62
2022-12-11T14:12:00.495Z,68.36
2022-12-11T14:14:36.075Z,68.09
2022-12-11T14:17:04.391Z,68.69
2022-12-11T14:19:32.333Z,68.75
2022-12-11T14:22:03.103Z,67.78
2022-12-11T14:24:33.056Z,67.63
2022-12-11T14:27:01.411Z,68.54
2022-12-11T14:29:31.326Z,70.12
2022-12-11T14:32:05.291Z,71.98
2022-12-11T14:34:36.794Z,71.68
2022-12-11T14:37:08.234Z,71.65
2022-12-11T14:39:41.210Z,72.02
2022-12-11T14:42:13.434Z,70.86
2022-12-11T14:44:49.542Z,70.96
2022-12-11T14:47:21.830Z,70.09
2022-12-11T14:49:53.722Z,72.02
2022-12-11T14:52:24.642Z,71.94
2022-12-11T14:54:58.041Z,70.52
2022-12-11T14:57:30.047Z,71.34
2022-12-11T14:59:58.547Z,71.72
2022-12-11T15:02:30.998Z,71.70
2022-12-11T15:05:04.008Z,71.12
2022-12-11T15:07:32.143Z,71.17
2022-12-11T15:10:01.409Z,72.91
2022-12-11T15:12:29.333Z,74.77
2022-12-11T15:14:59.474Z,75.94
2022-12-11T15:17:28.737Z,74.64
2022-12-11T15:20:02.481Z,73.50
2022-12-11T15:22:33.265Z,73.35
2022-12-11T15:25:02.645Z,75.04
2022-12-11T15:27:35.650Z,76.46
2022-12-11T15:30:03.857Z,76.41
2022-12-11T15:32:31.937Z,74.16
2022-12-11T15:35:01.032Z,76.19
2022-12-11T15:37:31.898Z,78.64
2022-12-11T15:40:02.767Z,80.08
2022-12-11T15:42:33.392Z,77.84
2022-12-11T15:45:01.903Z,75.34
2022-12-11T15:47:32.049Z,76.72
2022-12-11T15:50:01.934Z,78.34
2022-12-11T15:52:29.915Z,75.53
2022-12-11T15:54:57.636Z,73.76
2022-12-11T15:57:26.784Z,78.02
2022-12-11T15:59:56.410Z,80.51
2022-12-11T16:02:26.672Z,79.26
2022-12-11T16:04:54.643Z,77.76
2022-12-11T16:07:25.141Z,76.47
2022-12-11T16:09:53.617Z,78.87
2022-12-11T16:12:21.432Z,78.04
2022-12-11T16:14:50.878Z,77.08
2022-12-11T16:17:18.904Z,79.80
2022-12-11T16:19:46.850Z,78.38
2022-12-11T16:22:15.468Z,79.59
2022-12-11T16:24:43.469Z,81.93
2022-12-11T16:27:11.401Z,81.36
2022-12-11T16:29:40.917Z,81.38
2022-12-11T16:32:10.545Z,81.32
2022-12-11T16:34:38.882Z,81.16
2022-12-11T16:37:08.239Z,81.80
2022-12-11T16:39:37.554Z,81.96
2022-12-11T16:42:05.920Z,82.04
2022-12-11T16:44:33.851Z,83.04
2022-12-11T16:47:01.715Z,84.38
2022-12-11T16:49:32.215Z,83.16
2022-12-11T16:52:00.127Z,81.65
2022-12-11T16:54:28.056Z,78.75
2022-12-11T16:56:55.987Z,77.29
2022-12-11T16:59:23.862Z,79.12
2022-12-11T17:01:51.696Z,82.20
2022-12-11T17:04:19.731Z,82.28
2022-12-11T17:06:48.955Z,80.30
2022-12-11T17:09:16.775Z,79.42
2022-12-11T17:11:44.557Z,78.07
2022-12-11T17:14:12.976Z,76.90
2022-12-11T17:16:40.808Z,79.17
2022-12-11T17:19:09.278Z,79.57
2022-12-11T17:21:36.983Z,79.88
2022-12-11T17:24:07.097Z,80.50
2022-12-11T17:26:35.125Z,80.72
2022-12-11T17:29:03.271Z,80.92
2022-12-11T17:31:31.814Z,79.57
2022-12-11T17:34:01.044Z,77.43
2022-12-11T17:36:29.124Z,77.67
2022-12-11T17:38:56.958Z,77.40
2022-12-11T17:41:26.184Z,81.23
2022-12-11T17:43:55.246Z,81.33
2022-12-11T17:46:23.840Z,79.78
2022-12-11T17:48:51.657Z,79.28
2022-12-11T17:51:24.103Z,78.33
2022-12-11T17:53:52.570Z,77.39
2022-12-11T17:56:20.431Z,77.43
2022-12-11T17:58:49.637Z,77.03
2022-12-11T18:01:17.746Z,77.26
2022-12-11T18:03:45.725Z,80.29
2022-12-11T18:06:15.487Z,80.47
2022-12-11T18:08:44.497Z,79.00
2022-12-11T18:11:13.989Z,78.18
2022-12-11T18:13:42.597Z,77.84
2022-12-11T18:16:19.243Z,83.09
2022-12-11T18:18:48.183Z,82.54
2022-12-11T18:21:17.797Z,80.63
2022-12-11T18:23:46.635Z,79.47
2022-12-11T18:26:15.421Z,78.93
2022-12-11T18:28:43.943Z,80.37
2022-12-11T18:31:14.215Z,80.53
2022-12-11T18:33:44.129Z,79.34
2022-12-11T18:36:13.150Z,78.94
2022-12-11T18:38:42.248Z,81.84
2022-12-11T18:41:12.270Z,82.46
2022-12-11T18:43:40.280Z,80.66
2022-12-11T18:46:09.035Z,79.47
2022-12-11T18:48:38.361Z,77.60
2022-12-11T18:51:07.841Z,80.89
2022-12-11T18:53:36.825Z,80.50
2022-12-11T18:56:07.628Z,78.82
2022-12-11T18:58:35.974Z,78.67
2022-12-11T19:01:08.363Z,80.90
2022-12-11T19:03:36.707Z,80.63
2022-12-11T19:06:10.829Z,79.27
2022-12-11T19:08:38.572Z,79.80
2022-12-11T19:11:07.118Z,80.54
2022-12-11T19:13:35.542Z,82.58
2022-12-11T19:16:03.483Z,82.02
2022-12-11T19:18:31.351Z,80.54
2022-12-11T19:21:08.092Z,80.57
2022-12-11T19:23:38.236Z,79.47
2022-12-11T19:26:07.593Z,77.97
2022-12-11T19:28:35.399Z,78.09
2022-12-11T19:31:03.347Z,79.73
2022-12-11T19:33:31.583Z,80.84
2022-12-11T19:36:03.562Z,79.76
2022-12-11T19:38:31.555Z,81.50
2022-12-11T19:41:00.704Z,81.43
2022-12-11T19:43:28.921Z,79.94
2022-12-11T19:45:56.605Z,78.54
2022-12-11T19:48:24.729Z,77.59
2022-12-11T19:50:52.582Z,77.40
2022-12-11T19:53:20.590Z,78.01
2022-12-11T19:55:51.010Z,79.81
2022-12-11T19:58:20.555Z,83.18
2022-12-11T20:00:48.555Z,83.69
2022-12-11T20:03:16.429Z,82.54
2022-12-11T20:05:44.207Z,82.16
2022-12-11T20:08:43.045Z,81.59
2022-12-11T20:11:04.970Z,79.79
2022-12-11T20:13:34.618Z,79.57
2022-12-11T20:16:05.909Z,78.92
2022-12-11T20:18:35.432Z,78.34
2022-12-11T20:21:04.726Z,80.42
2022-12-11T20:23:32.786Z,81.42
2022-12-11T20:26:00.568Z,82.90
2022-12-11T20:28:28.390Z,84.65
2022-12-11T20:31:04.832Z,84.64
2022-12-11T20:33:32.760Z,83.77
2022-12-11T20:36:00.434Z,83.92
2022-12-11T20:38:34.138Z,85.20
2022-12-11T20:41:05.081Z,84.49
2022-12-11T20:43:35.545Z,84.56
2022-12-11T20:46:07.063Z,82.88
2022-12-11T20:48:35.518Z,82.11
2022-12-11T20:51:05.110Z,81.65
2022-12-11T20:53:37.594Z,80.21
2022-12-11T20:56:10.312Z,79.65
2022-12-11T20:58:38.320Z,78.52
2022-12-11T21:01:07.910Z,79.91
2022-12-11T21:03:41.765Z,79.32
2022-12-11T21:06:12.504Z,79.08
2022-12-11T21:08:40.626Z,79.59
2022-12-11T21:11:08.681Z,83.62
2022-12-11T21:13:37.310Z,82.89
2022-12-11T21:16:08.700Z,81.13
2022-12-11T21:18:36.498Z,79.69
2022-12-11T21:21:04.706Z,81.13
2022-12-11T21:23:32.559Z,83.65
2022-12-11T21:26:00.606Z,83.83
2022-12-11T21:28:34.993Z,82.36
2022-12-11T21:31:04.549Z,80.76
2022-12-11T21:33:34.277Z,80.60
2022-12-11T21:36:02.529Z,79.79
2022-12-11T21:38:30.430Z,80.19
2022-12-11T21:40:59.066Z,80.69
2022-12-11T21:43:26.765Z,82.61
2022-12-11T21:46:02.391Z,84.23
2022-12-11T21:48:30.702Z,83.95
2022-12-11T21:51:08.849Z,82.44
2022-12-11T21:53:36.902Z,81.97
2022-12-11T21:56:07.372Z,79.36
2022-12-11T21:58:35.036Z,79.47
2022-12-11T22:01:03.552Z,79.32
2022-12-11T22:03:31.603Z,80.38
2022-12-11T22:05:59.319Z,80.59
2022-12-11T22:08:28.479Z,82.30
2022-12-11T22:10:56.678Z,82.76
2022-12-11T22:13:25.099Z,82.21
2022-12-11T22:15:53.239Z,80.39
2022-12-11T22:18:21.336Z,80.83
2022-12-11T22:20:49.373Z,81.68
2022-12-11T22:23:17.099Z,82.93
2022-12-11T22:25:46.243Z,82.31
2022-12-11T22:28:13.913Z,81.50
2022-12-11T22:30:42.353Z,82.04
2022-12-11T22:33:10.823Z,84.32
2022-12-11T22:35:38.539Z,83.98
2022-12-11T22:38:06.516Z,83.72
2022-12-11T22:40:35.186Z,81.84
2022-12-11T22:43:04.473Z,81.33
2022-12-11T22:45:32.307Z,80.45
2022-12-11T22:48:00.048Z,79.84
2022-12-11T22:50:27.811Z,79.47
2022-12-11T22:52:55.512Z,79.19
2022-12-11T22:55:23.229Z,80.23
2022-12-11T22:57:50.938Z,80.46
2022-12-11T23:00:20.182Z,80.66
2022-12-11T23:02:48.388Z,81.10
2022-12-11T23:05:16.213Z,81.32
2022-12-11T23:07:44.066Z,81.00
2022-12-11T23:10:12.287Z,81.12
2022-12-11T23:12:40.116Z,80.95
2022-12-11T23:15:09.347Z,80.19
2022-12-11T23:17:39.140Z,80.08
2022-12-11T23:20:08.566Z,79.97
2022-12-11T23:22:36.286Z,82.99
2022-12-11T23:25:04.503Z,84.18
2022-12-11T23:27:32.503Z,85.42
2022-12-11T23:30:00.162Z,84.03
2022-12-11T23:32:27.928Z,82.41
2022-12-11T23:34:57.122Z,82.12
2022-12-11T23:37:24.938Z,81.24
2022-12-11T23:39:52.615Z,80.32
2022-12-11T23:42:20.296Z,79.71
2022-12-11T23:44:48.215Z,78.40
2022-12-11T23:47:15.878Z,78.95
2022-12-11T23:49:43.555Z,81.16
2022-12-11T23:52:12.862Z,81.07
2022-12-11T23:54:40.537Z,82.02
2022-12-11T23:57:08.589Z,81.19
2022-12-11T23:59:37.401Z,81.17
